PAGY/SGY METAR and TAF weather

Enter ICAO airport designator
Station Type Date Time Source
PAGY METAR 2019/12/09 21:53 UTC NOAA

PAGY 092153Z AUTO 00000KT 10SM CLR 01/00 A3000 RMK SLP158 T00110000 TSNO VIA AUTODIAL


Station Type Date Time Source
PAGY Decoded METAR 2019/12/09 21:53 UTC NOAA

SKAGWAY AIRPORT, AK, United States (PAGY) 59-28N 135-19W 5M
Dec 09, 2019 - 04:53 PM EST / 2019.12.09 2153 UTC
Wind: Calm:0
Visibility: 10 mile(s):0
Sky conditions: clear
Temperature: 34.0 F (1.1 C)
Dew Point: 32.0 F (0.0 C)
Relative Humidity: 92%
Pressure (altimeter): 30 in. Hg (1015 hPa)
ob: PAGY 092153Z AUTO 00000KT 10SM CLR 01/00 A3000 RMK SLP158 T00110000 TSNO VIA AUTODIAL
cycle: 22

Station Type Date Time Source
PAGY TAF 2019/12/09 18:48 UTC NOAA

TAF PAGY 091740Z 0918/1018 00000KT P6SM SCT012 BKN060
FM092000 04005KT P6SM BKN100
FM100000 04009KT P6SM SCT030 BKN200
AMD LTD TO CLD VIS AND WIND

Example: see airport list